Архив погоды в Рудне

Метеограмма Рудня
Четверг, 20 Июня
Время местн. Темп Ветер Видим Явления Облачность нижн/средн/верх Атм. давл. Влжн Точка росы ВНГО R Сост. почвы Tg s
Напр Скр Прв ур.ст ур.м изм
18:00 +30.3° В 1 - 10 км - переменная облачность 751 761 +0.1 22% +6.2° 1 км - - - -
15:00 +31.2° С 1 - 10 км - переменная облачность 751 761 -0.6 22% +6.9° 1 км - - - -
12:00 +29.7° В 1 - 10 км - облачно с прояснениями 752 762 -0.2 25% +7.4° 1 км - - - -
09:00 +28.3° С-В 1 - 10 км - ясно 752 762 +0.2 31% +9.4° более 2.5 км - - - -
06:00 +17.8° З,С-З 1 - 10 км - ясно 752 762 +0.8 67% +11.6° более 2.5 км - Сухая (без трещин) - -
03:00 +14.8° С-З 1 - 10 км - ясно 751 762 +0.7 84% +12.2° более 2.5 км - - - -
00:00 +17.3° З,С-З 1 - 10 км - ясно 751 761 +0.6 66% +10.9° более 2.5 км - - - -
Среда, 19 Июня
Время местн. Темп Ветер Видим Явления Облачность нижн/средн/верх Атм. давл. Влжн Точка росы ВНГО R Сост. почвы Tg s
Напр Скр Прв ур.ст ур.м изм
21:00 +22.7° С 1 - 10 км - переменная облачность 750 760 +0.8 45% +10.1° - - - - -
18:00 +28.5° С 3 - 10 км - переменная облачность 749 759 +0.2 29% +8.6° 1 км - - - -
15:00 +30.8° С,С-З 2 - 10 км - переменная облачность 749 759 -0.5 22% +6.5° 1 км - - - -
12:00 +29° С-З 2 - 10 км - переменная облачность 750 759 -0.5 37% +12.8° 1 км - - - -
09:00 +21.6° З,С-З 1 - 10 км небо без изменений {дождь} облачно с прояснениями 750 760 -0.4 80% +18° 1 км - - - -
06:00 +16.8° З 1 - 10 км слабый непрерывный дождь облачно 750 761 +1 87% +14.7° 1 км - Влажная (без луж) - -
03:00 +15.6° штиль 0 - 10 км - переменная облачность 749 760 0 75% +11.2° 1 км - - - -
00:00 +17.3° штиль 0 - 10 км - ясно 749 760 0 66% +11° более 2.5 км - - - -
Вторник, 18 Июня
Время местн. Темп Ветер Видим Явления Облачность нижн/средн/верх Атм. давл. Влжн Точка росы ВНГО R Сост. почвы Tg s
Напр Скр Прв ур.ст ур.м изм
21:00 +21.8° штиль 0 - 10 км - ясно 749 759 +0.4 47% +10.1° более 2.5 км - - - -
18:00 +28.4° С 1 - 10 км - переменная облачность 749 759 -0.6 25% +6.3° 1 км - - - -
15:00 +30.6° С-З 2 - 10 км - переменная облачность 750 759 -0.8 22% +6.2° 1 км - - - -
12:00 +28.1° С,С-З 2 - 10 км - облачно с прояснениями 750 760 -0.4 27% +7.6° 1 км - - - -
09:00 +25.9° С-В 1 - 10 км - незначительная облачность 751 761 -0.1 34% +8.7° - - - - -
06:00 +18.5° С 1 - 10 км - облачно с прояснениями 751 761 +0.4 60% +10.7° - - Сухая (без трещин) - -
03:00 +13.8° штиль 0 - 10 км - преимущественно облачно 750 761 -0.3 82% +10.8° 1 км - - - -
00:00 +15.7° С-З 1 - 10 км - облачно с прояснениями 751 761 +0.3 67% +9.7° - - - - -
Понедельник, 17 Июня
Время местн. Темп Ветер Видим Явления Облачность нижн/средн/верх Атм. давл. Влжн Точка росы ВНГО R Сост. почвы Tg s
Напр Скр Прв ур.ст ур.м изм
21:00 +20° штиль 0 - 10 км - переменная облачность 750 761 +0.4 48% +8.8° - - - - -
18:00 +26.6° С-З 1 - 10 км - ясно 750 760 -0.5 25% +5.1° более 2.5 км 0 - - -
15:00 +28.1° С 1 - 10 км - ясно 750 760 -0.5 23% +5° более 2.5 км - - - -